Time;durP1;ratioP1;P1;durP2;ratioP2;P2;SDS_P1;SDS_P2;PMS_P1;PMS_P2;Temp;Humidity;BMP_temperature;BMP_pressure;BME280_temperature;BME280_humidity;BME280_pressure;Samples;Min_cycle;Max_cycle;Signal;HPM_P1;HPM_P2
2023/03/23 00:02:25;;;;;;;;;49.25;39.25;;;;;12.80;37.66;99281.44;5044372;28;8847;-76
2023/03/23 00:04:54;;;;;;;;;46.75;40.50;;;;;12.76;37.66;99276.34;5049813;28;8843;-75
2023/03/23 00:07:27;;;;;;;;;41.25;36.00;;;;;12.80;37.59;99280.59;5049126;28;8996;-76
2023/03/23 00:09:57;;;;;;;;;44.50;37.50;;;;;12.78;37.76;99280.63;5018504;28;8918;-76
2023/03/23 00:12:32;;;;;;;;;40.50;37.00;;;;;12.74;37.98;99281.66;5049480;28;8982;-78
2023/03/23 00:15:00;;;;;;;;;42.50;35.50;;;;;12.72;37.98;99284.34;5048516;28;8855;-77
2023/03/23 00:17:29;;;;;;;;;41.75;35.25;;;;;12.73;37.94;99280.81;5067451;28;8854;-75
2023/03/23 00:19:57;;;;;;;;;38.75;33.25;;;;;12.78;37.65;99279.78;5067600;28;8884;-77
2023/03/23 00:22:25;;;;;;;;;36.75;34.50;;;;;12.79;37.68;99274.47;5050338;28;8858;-79
2023/03/23 00:24:53;;;;;;;;;40.25;35.25;;;;;12.76;37.58;99273.69;5050406;28;8896;-76
2023/03/23 00:27:23;;;;;;;;;43.75;37.25;;;;;12.80;37.81;99265.63;5067085;28;8854;-76
2023/03/23 00:29:52;;;;;;;;;49.25;40.00;;;;;12.80;37.75;99275.31;5085645;28;8870;-78
2023/03/23 00:32:28;;;;;;;;;50.75;40.25;;;;;12.77;37.79;99268.38;5069856;28;8855;-77
2023/03/23 00:34:58;;;;;;;;;53.25;44.00;;;;;12.78;37.88;99271.88;5036349;28;8844;-78
2023/03/23 00:37:26;;;;;;;;;53.75;44.50;;;;;12.76;38.24;99266.63;5070217;28;8855;-76
2023/03/23 00:39:57;;;;;;;;;58.25;47.50;;;;;12.77;38.00;99267.50;5053587;28;8863;-76
2023/03/23 00:42:26;;;;;;;;;62.00;51.00;;;;;12.78;38.39;99270.09;5053470;28;8941;-77
2023/03/23 00:44:59;;;;;;;;;58.25;47.75;;;;;12.75;38.08;99272.84;5076214;28;8840;-78
2023/03/23 00:47:28;;;;;;;;;64.67;50.33;;;;;12.71;38.44;99269.44;5069557;28;8843;-80
2023/03/23 00:49:56;;;;;;;;;56.50;46.00;;;;;12.65;38.22;99264.38;5070143;28;8938;-79
2023/03/23 00:52:24;;;;;;;;;71.33;54.67;;;;;12.36;39.07;99261.88;5077077;28;8958;-77
2023/03/23 00:54:52;;;;;;;;;60.50;49.25;;;;;11.75;40.04;99258.44;5059027;28;9170;-77
2023/03/23 00:57:23;;;;;;;;;63.00;52.00;;;;;11.87;39.85;99266.91;5070193;28;8855;-75
2023/03/23 00:59:53;;;;;;;;;69.33;53.33;;;;;11.55;40.50;99260.81;5034803;28;8973;-77
2023/03/23 01:02:24;;;;;;;;;65.50;52.25;;;;;10.86;42.19;99258.38;5066206;28;9151;-76
2023/03/23 01:04:53;;;;;;;;;54.50;46.50;;;;;10.90;42.20;99260.00;5032154;28;8989;-77
2023/03/23 01:07:23;;;;;;;;;60.50;49.00;;;;;11.01;41.92;99254.47;5033189;28;9603;-74
2023/03/23 01:09:53;;;;;;;;;56.25;47.25;;;;;10.92;42.02;99258.19;5066223;28;8862;-77
2023/03/23 01:12:20;;;;;;;;;59.75;50.00;;;;;10.93;42.32;99261.69;5082329;28;8854;-77
2023/03/23 01:14:48;;;;;;;;;63.00;51.25;;;;;10.69;42.53;99255.25;5048187;28;8855;-75
2023/03/23 01:17:18;;;;;;;;;58.75;48.50;;;;;10.73;42.46;99251.69;5064944;28;8841;-77
2023/03/23 01:19:46;;;;;;;;;62.00;49.00;;;;;10.19;43.99;99259.13;5076157;28;8855;-76
2023/03/23 01:22:14;;;;;;;;;60.50;50.75;;;;;10.18;43.86;99262.66;5065064;28;8928;-77
2023/03/23 01:24:42;;;;;;;;;58.50;47.75;;;;;10.10;44.04;99263.72;5064692;28;8985;-76
2023/03/23 01:27:09;;;;;;;;;54.75;45.75;;;;;10.37;43.34;99257.81;4998562;28;8852;-75
2023/03/23 01:29:37;;;;;;;;;57.00;46.50;;;;;10.51;42.75;99260.09;5044501;28;8959;-76
2023/03/23 01:32:05;;;;;;;;;57.75;47.25;;;;;10.44;43.20;99263.78;5027997;28;9097;-77
2023/03/23 01:34:34;;;;;;;;;56.00;48.00;;;;;9.99;44.27;99267.47;5061517;28;8865;-76
2023/03/23 01:37:02;;;;;;;;;58.75;49.50;;;;;9.79;44.85;99265.31;5015276;28;8952;-76
2023/03/23 01:39:30;;;;;;;;;61.00;47.25;;;;;9.73;45.18;99265.44;5015180;28;8882;-75
2023/03/23 01:41:58;;;;;;;;;58.50;47.00;;;;;9.71;45.02;99263.75;5011556;28;8866;-76
2023/03/23 01:45:03;;;;;;;;;57.50;48.00;;;;;9.93;44.65;99262.38;5011630;28;9650;-75
2023/03/23 01:47:31;;;;;;;;;61.50;48.75;;;;;9.86;44.65;99260.78;4995318;28;8870;-78
2023/03/23 01:50:01;;;;;;;;;67.00;53.25;;;;;10.04;44.33;99263.88;5011616;28;8927;-77
2023/03/23 01:52:30;;;;;;;;;56.75;47.25;;;;;10.18;43.87;99264.44;5004097;28;8910;-78
2023/03/23 01:55:04;;;;;;;;;59.50;49.00;;;;;10.15;43.92;99267.97;4988875;28;8855;-77
2023/03/23 01:57:32;;;;;;;;;57.75;47.00;;;;;10.27;43.69;99268.59;4972834;28;9006;-78
2023/03/23 02:00:14;;;;;;;;;55.25;47.00;;;;;10.37;43.40;99263.06;4981008;28;8835;-76
2023/03/23 02:02:44;;;;;;;;;55.75;45.50;;;;;10.45;43.38;99255.00;5004893;28;8856;-75
2023/03/23 02:05:20;;;;;;;;;55.00;45.00;;;;;10.47;43.33;99255.81;4916750;29;8879;-76
2023/03/23 02:07:49;;;;;;;;;57.00;46.50;;;;;10.49;43.17;99261.03;4932145;29;8886;-77
2023/03/23 02:10:18;;;;;;;;;58.00;46.75;;;;;10.25;44.10;99268.63;4870158;29;8914;-74
2023/03/23 02:12:45;;;;;;;;;58.00;47.00;;;;;10.42;43.54;99264.72;4931759;29;8893;-75
2023/03/23 02:15:14;;;;;;;;;51.50;44.25;;;;;10.45;43.62;99262.03;4917070;29;8880;-76
2023/03/23 02:17:51;;;;;;;;;48.75;41.75;;;;;10.44;43.84;99261.16;4932054;29;8880;-76
2023/03/23 02:20:34;;;;;;;;;52.25;43.50;;;;;10.51;44.10;99264.50;4917011;29;8863;-77
2023/03/23 02:23:28;;;;;;;;;52.00;44.00;;;;;10.70;43.58;99267.50;4930558;29;8897;-76
2023/03/23 02:26:12;;;;;;;;;51.50;43.00;;;;;10.64;43.60;99265.91;4916635;29;8920;-76
2023/03/23 02:28:56;;;;;;;;;46.75;38.25;;;;;10.67;43.95;99264.94;4949743;28;8871;-76
2023/03/23 02:31:44;;;;;;;;;54.50;43.75;;;;;10.72;43.57;99261.31;4956412;28;8866;-75
2023/03/23 02:34:18;;;;;;;;;40.75;37.75;;;;;10.61;44.02;99263.34;4995786;28;8850;-75
2023/03/23 02:36:52;;;;;;;;;53.50;45.00;;;;;10.60;43.78;99267.75;5092690;28;8861;-76
2023/03/23 02:39:23;;;;;;;;;48.50;39.25;;;;;10.58;44.06;99266.06;5063954;28;8833;-76
2023/03/23 02:41:58;;;;;;;;;59.00;48.50;;;;;10.78;43.28;99268.19;5059130;28;8870;-75
2023/03/23 02:44:29;;;;;;;;;53.25;43.50;;;;;10.84;43.26;99267.19;5068853;28;8866;-76
2023/03/23 02:47:01;;;;;;;;;58.75;47.50;;;;;10.91;43.08;99263.47;5036884;28;8867;-75
2023/03/23 02:49:36;;;;;;;;;58.25;49.00;;;;;10.90;43.04;99267.88;5077147;28;8842;-76
2023/03/23 02:52:07;;;;;;;;;56.00;44.75;;;;;10.69;43.71;99265.78;5031088;28;8870;-78
2023/03/23 02:54:37;;;;;;;;;55.25;46.00;;;;;10.52;44.20;99269.72;4995471;28;8877;-76
2023/03/23 02:57:05;;;;;;;;;52.25;42.75;;;;;10.55;44.08;99271.41;5020130;28;8855;-76
2023/03/23 02:59:33;;;;;;;;;59.75;47.25;;;;;10.49;44.38;99272.41;4996094;28;9098;-75
2023/03/23 03:02:07;;;;;;;;;54.00;44.00;;;;;10.49;44.38;99277.66;4994146;28;8954;-75
2023/03/23 03:04:39;;;;;;;;;55.75;46.75;;;;;10.45;44.55;99272.53;5021430;28;8891;-76
2023/03/23 03:07:30;;;;;;;;;53.50;42.75;;;;;10.26;45.24;99280.00;4998070;28;8866;-76
2023/03/23 03:10:03;;;;;;;;;51.75;42.50;;;;;10.17;45.53;99275.81;4974991;28;9003;-77
2023/03/23 03:12:42;;;;;;;;;49.75;42.00;;;;;10.35;45.17;99270.13;4987172;28;8910;-76
2023/03/23 03:15:22;;;;;;;;;49.50;40.75;;;;;10.46;44.95;99276.88;5006139;28;8865;-77
2023/03/23 03:17:59;;;;;;;;;42.50;37.50;;;;;10.65;44.60;99282.53;4962443;28;8837;-77
2023/03/23 03:20:29;;;;;;;;;46.00;40.50;;;;;10.75;43.83;99273.56;4955137;28;8935;-77
2023/03/23 03:22:59;;;;;;;;;50.75;44.00;;;;;10.76;44.13;99273.53;4969337;28;8867;-75
2023/03/23 03:25:29;;;;;;;;;52.25;41.75;;;;;10.91;43.78;99269.59;4997648;28;8943;-76
2023/03/23 03:27:58;;;;;;;;;56.00;46.00;;;;;10.83;43.59;99278.63;5033102;28;8929;-78
2023/03/23 03:30:44;;;;;;;;;51.50;44.00;;;;;10.93;43.34;99273.03;5032476;28;8882;-75
2023/03/23 03:33:12;;;;;;;;;48.25;40.50;;;;;10.90;43.38;99272.28;5024682;28;9698;-75
2023/03/23 03:35:43;;;;;;;;;54.25;44.50;;;;;10.96;43.27;99274.75;5059757;28;8864;-77
2023/03/23 03:38:13;;;;;;;;;56.75;47.25;;;;;10.98;42.99;99276.44;5042613;28;8954;-76
2023/03/23 03:40:41;;;;;;;;;53.50;44.00;;;;;11.01;42.77;99271.97;5014913;28;8866;-77
2023/03/23 03:43:09;;;;;;;;;53.50;46.00;;;;;11.07;42.70;99277.09;5092549;28;8874;-77
2023/03/23 03:45:37;;;;;;;;;52.25;42.25;;;;;11.11;42.92;99278.75;5044738;28;8866;-75
2023/03/23 03:48:05;;;;;;;;;54.25;45.25;;;;;11.15;42.51;99285.63;5083776;28;8832;-76
2023/03/23 03:50:33;;;;;;;;;44.25;38.50;;;;;11.17;42.63;99284.69;5067509;28;8909;-77
2023/03/23 03:53:03;;;;;;;;;56.25;44.75;;;;;11.19;42.75;99276.75;5054031;28;8871;-76
2023/03/23 03:55:35;;;;;;;;;55.75;45.75;;;;;11.20;42.37;99285.50;5028171;28;8873;-75
2023/03/23 03:58:08;;;;;;;;;58.75;45.75;;;;;11.20;42.28;99278.50;5055498;28;8848;-76
2023/03/23 04:00:56;;;;;;;;;59.50;49.00;;;;;11.17;42.38;99276.78;5019848;28;8866;-76
2023/03/23 04:03:30;;;;;;;;;54.50;46.75;;;;;11.19;42.52;99282.00;5004620;28;8915;-77
2023/03/23 04:06:12;;;;;;;;;57.50;47.75;;;;;11.18;42.77;99278.53;4987714;28;9677;-75
2023/03/23 04:08:42;;;;;;;;;60.50;49.00;;;;;11.15;42.67;99278.59;5024755;28;8881;-75
2023/03/23 04:11:12;;;;;;;;;60.50;51.00;;;;;11.12;42.56;99283.97;5042084;28;8858;-76
2023/03/23 04:13:39;;;;;;;;;64.75;51.25;;;;;11.13;42.51;99282.19;5028051;28;8853;-78
2023/03/23 04:16:16;;;;;;;;;58.50;47.50;;;;;11.13;42.46;99280.41;5029658;28;8989;-77
2023/03/23 04:18:47;;;;;;;;;54.25;45.00;;;;;11.12;42.76;99280.44;5036075;28;8838;-77
2023/03/23 04:21:17;;;;;;;;;55.25;45.50;;;;;11.11;42.69;99284.00;5009250;28;8847;-76
2023/03/23 04:23:48;;;;;;;;;55.50;46.25;;;;;11.12;42.71;99273.44;4989531;28;8878;-78
2023/03/23 04:26:16;;;;;;;;;59.25;48.25;;;;;11.12;42.89;99275.19;5044520;28;8875;-75
2023/03/23 04:28:50;;;;;;;;;58.25;47.75;;;;;11.16;42.56;99268.94;4974241;28;8960;-76
2023/03/23 04:31:30;;;;;;;;;55.00;42.75;;;;;11.18;42.47;99273.25;5017950;28;8858;-77
2023/03/23 04:34:07;;;;;;;;;53.50;43.75;;;;;11.17;42.75;99270.66;5016304;28;8864;-75
2023/03/23 04:36:41;;;;;;;;;55.25;46.00;;;;;11.20;42.44;99274.97;5004393;28;8870;-76
2023/03/23 04:39:17;;;;;;;;;59.50;45.50;;;;;11.21;42.80;99279.34;5040288;28;8952;-77
2023/03/23 04:41:46;;;;;;;;;53.50;42.75;;;;;11.23;42.46;99267.84;5044523;28;8865;-76
2023/03/23 04:44:29;;;;;;;;;50.50;41.75;;;;;11.25;42.47;99273.94;5011075;28;8897;-77
2023/03/23 04:47:09;;;;;;;;;56.25;46.50;;;;;11.26;42.72;99277.44;5027525;28;8866;-75
2023/03/23 04:49:42;;;;;;;;;77.00;62.67;;;;;11.32;42.42;99275.50;5010744;28;8858;-78
2023/03/23 04:52:20;;;;;;;;;55.50;46.75;;;;;11.35;42.45;99274.53;5027721;28;9489;-77
2023/03/23 04:54:56;;;;;;;;;57.75;49.00;;;;;11.38;42.32;99279.72;5082188;28;8879;-77
2023/03/23 04:57:27;;;;;;;;;55.75;45.75;;;;;11.45;42.50;99272.53;5069635;28;8886;-77
2023/03/23 05:00:16;;;;;;;;;62.50;49.00;;;;;11.48;42.35;99270.66;5086784;28;9659;-75
2023/03/23 05:02:51;;;;;;;;;65.25;53.00;;;;;11.53;42.06;99279.28;5087243;28;8871;-76
2023/03/23 05:05:21;;;;;;;;;60.25;49.50;;;;;11.55;41.86;99280.09;5086722;28;8835;-78
2023/03/23 05:07:50;;;;;;;;;63.25;50.75;;;;;11.59;42.23;99280.88;5086572;28;8878;-78
2023/03/23 05:10:23;;;;;;;;;57.75;47.25;;;;;11.65;41.63;99280.69;5103178;28;8843;-76
2023/03/23 05:12:54;;;;;;;;;54.00;45.00;;;;;11.72;41.91;99287.50;5053325;28;8872;-77
2023/03/23 05:15:22;;;;;;;;;88.00;76.00;;;;;11.76;41.54;99289.13;5082263;28;8879;-76
2023/03/23 05:17:52;;;;;;;;;66.33;53.33;;;;;11.87;41.79;99290.63;5033285;28;10487;-77
2023/03/23 05:20:22;;;;;;;;;62.75;50.50;;;;;11.90;41.44;99296.66;5024369;28;9031;-77
2023/03/23 05:23:04;;;;;;;;;50.25;42.25;;;;;11.98;41.03;99291.16;5025072;28;8860;-76
2023/03/23 05:25:40;;;;;;;;;36.00;33.00;;;;;12.05;40.37;99297.06;5041103;28;8862;-77
2023/03/23 05:28:18;;;;;;;;;60.00;50.75;;;;;12.10;40.85;99298.66;5043001;28;8959;-77
2023/03/23 05:31:13;;;;;;;;;48.75;41.00;;;;;12.16;40.40;99294.97;5030839;28;8858;-77
2023/03/23 05:33:40;;;;;;;;;49.50;41.50;;;;;12.22;40.25;99289.53;5031589;28;8867;-76
2023/03/23 05:36:30;;;;;;;;;47.50;40.50;;;;;12.30;40.48;99292.78;5031094;28;8854;-78
2023/03/23 05:39:09;;;;;;;;;56.75;46.25;;;;;12.39;40.32;99296.91;5029688;28;8874;-77
2023/03/23 05:41:56;;;;;;;;;50.25;41.75;;;;;12.47;40.12;99302.78;5042188;28;8862;-76
2023/03/23 05:44:27;;;;;;;;;56.00;45.25;;;;;12.57;40.33;99299.84;5040013;28;8891;-75
2023/03/23 05:47:00;;;;;;;;;64.67;52.67;;;;;12.72;40.09;99299.31;5023116;28;8855;-77
2023/03/23 05:49:28;;;;;;;;;60.00;48.25;;;;;12.80;40.05;99299.91;5014808;28;9122;-77
2023/03/23 05:51:56;;;;;;;;;48.50;40.75;;;;;12.83;39.62;99299.81;5036287;28;8842;-76
2023/03/23 05:54:26;;;;;;;;;51.25;41.75;;;;;12.94;39.48;99302.13;5029439;28;8919;-77
2023/03/23 05:56:56;;;;;;;;;46.25;39.25;;;;;13.00;39.85;99299.25;5030856;28;8915;-79
2023/03/23 05:59:36;;;;;;;;;53.00;45.00;;;;;13.08;39.53;99305.13;5020035;28;8903;-78
2023/03/23 06:02:06;;;;;;;;;54.50;45.25;;;;;13.15;39.22;99303.16;5015740;28;8871;-77
2023/03/23 06:04:34;;;;;;;;;59.75;48.00;;;;;13.19;39.46;99301.25;5013755;28;8864;-76
2023/03/23 06:07:14;;;;;;;;;57.50;45.75;;;;;13.26;39.51;99302.75;5000154;28;8846;-78
2023/03/23 06:09:49;;;;;;;;;50.50;40.25;;;;;13.38;39.42;99298.81;5030280;28;8894;-77
2023/03/23 06:12:27;;;;;;;;;53.25;44.75;;;;;13.50;39.28;99303.63;5054669;28;8862;-79
2023/03/23 06:14:58;;;;;;;;;55.00;45.00;;;;;13.60;39.61;99298.88;5024673;28;8862;-78
2023/03/23 06:17:42;;;;;;;;;53.25;42.75;;;;;13.73;39.08;99294.84;5051751;28;8866;-77
2023/03/23 06:20:11;;;;;;;;;51.50;43.50;;;;;13.82;39.30;99297.16;5069044;28;8872;-79
2023/03/23 06:22:41;;;;;;;;;54.50;44.50;;;;;13.96;39.15;99303.69;5052569;28;8850;-78
2023/03/23 06:25:12;;;;;;;;;53.75;44.25;;;;;14.07;39.14;99310.31;5034204;28;8894;-76
2023/03/23 06:27:46;;;;;;;;;50.00;40.75;;;;;14.20;39.21;99304.53;5007303;28;8857;-78
2023/03/23 06:30:15;;;;;;;;;47.50;41.00;;;;;14.30;39.04;99305.91;5044790;28;9027;-77
2023/03/23 06:32:46;;;;;;;;;51.00;42.00;;;;;14.44;38.75;99305.31;5013652;28;8864;-78
2023/03/23 06:35:16;;;;;;;;;48.50;41.00;;;;;14.59;38.51;99309.97;4992488;28;8889;-82
2023/03/23 06:37:43;;;;;;;;;49.50;42.00;;;;;14.73;38.35;99300.63;5031181;28;8834;-81
2023/03/23 06:40:21;;;;;;;;;45.50;38.50;;;;;14.91;37.69;99293.72;5040142;28;8943;-82
2023/03/23 06:42:58;;;;;;;;;46.25;37.25;;;;;15.03;37.57;99296.66;5006763;28;8832;-80
2023/03/23 06:45:26;;;;;;;;;48.00;41.50;;;;;15.11;37.29;99291.03;5023259;28;8861;-80
2023/03/23 06:48:17;;;;;;;;;51.25;42.75;;;;;15.30;37.51;99300.81;4998066;28;9009;-81
2023/03/23 06:50:46;;;;;;;;;53.25;42.25;;;;;15.44;36.98;99301.94;4989176;28;8883;-81
2023/03/23 06:53:16;;;;;;;;;50.00;42.25;;;;;15.50;36.87;99300.78;5021250;28;9060;-81
2023/03/23 06:55:46;;;;;;;;;47.50;40.25;;;;;15.69;36.94;99313.25;5017243;28;8861;-81
2023/03/23 06:58:16;;;;;;;;;45.75;38.75;;;;;15.80;36.37;99303.88;5018679;28;8946;-80
2023/03/23 07:00:44;;;;;;;;;47.00;41.25;;;;;15.96;36.07;99304.03;5027827;28;8899;-81
2023/03/23 07:03:15;;;;;;;;;42.00;37.25;;;;;16.09;35.92;99309.56;5024232;28;8845;-80
2023/03/23 07:05:47;;;;;;;;;42.00;35.00;;;;;16.28;35.38;99314.00;5015682;28;8868;-81
2023/03/23 07:08:16;;;;;;;;;40.25;35.50;;;;;16.39;35.59;99314.34;5015852;28;8843;-79
2023/03/23 07:10:53;;;;;;;;;46.00;39.50;;;;;16.50;35.05;99309.41;5001680;28;8871;-80
2023/03/23 07:13:27;;;;;;;;;42.75;37.00;;;;;16.66;34.91;99314.81;5022948;28;8837;-79
2023/03/23 07:16:01;;;;;;;;;47.50;37.75;;;;;16.74;34.39;99306.47;4952988;28;8848;-81
2023/03/23 07:18:30;;;;;;;;;47.25;40.00;;;;;16.80;34.31;99308.81;4996808;28;9015;-72
2023/03/23 07:21:00;;;;;;;;;44.25;36.25;;;;;16.91;34.15;99309.13;5027789;28;8922;-81
2023/03/23 07:23:32;;;;;;;;;45.75;38.75;;;;;17.02;33.97;99307.72;5029127;28;8916;-82
2023/03/23 07:26:08;;;;;;;;;53.75;45.50;;;;;17.06;33.63;99314.56;5022861;28;9561;-81
2023/03/23 07:28:45;;;;;;;;;48.00;36.00;;;;;17.09;33.27;99312.63;4984865;28;8864;-81
2023/03/23 07:31:25;;;;;;;;;54.00;44.50;;;;;17.26;33.19;99309.13;4976187;28;9596;-81
2023/03/23 07:33:54;;;;;;;;;58.75;46.25;;;;;17.47;33.50;99308.94;4998764;28;8963;-81
2023/03/23 07:36:28;;;;;;;;;41.25;36.75;;;;;17.51;33.14;99322.00;4988904;28;8943;-81
2023/03/23 07:38:58;;;;;;;;;39.00;34.50;;;;;17.60;32.25;99319.78;5007723;28;8858;-79
2023/03/23 07:41:26;;;;;;;;;36.00;32.75;;;;;17.71;32.39;99314.72;4967479;28;9000;-77
2023/03/23 07:43:57;;;;;;;;;40.25;36.00;;;;;17.72;32.23;99321.75;5006473;28;8998;-77
2023/03/23 07:46:33;;;;;;;;;40.25;34.75;;;;;17.79;32.05;99320.47;4999774;28;8854;-81
2023/03/23 07:49:12;;;;;;;;;42.50;34.50;;;;;17.86;32.01;99321.03;5050381;28;8848;-77
2023/03/23 07:51:45;;;;;;;;;42.50;36.00;;;;;17.96;31.89;99323.06;5017157;28;8874;-75
2023/03/23 07:54:16;;;;;;;;;38.00;32.75;;;;;18.03;31.78;99328.06;5052363;28;8873;-76
2023/03/23 07:56:58;;;;;;;;;39.50;35.25;;;;;18.12;31.59;99327.59;5041798;28;8899;-77
2023/03/23 07:59:33;;;;;;;;;36.75;32.25;;;;;18.14;31.51;99325.69;5041425;28;8859;-75
2023/03/23 08:02:01;;;;;;;;;40.00;35.50;;;;;18.15;31.23;99327.41;5052823;28;8845;-77
2023/03/23 08:04:49;;;;;;;;;38.50;34.00;;;;;18.09;31.29;99327.75;5072168;28;8842;-78
2023/03/23 08:07:37;;;;;;;;;47.25;39.25;;;;;18.02;31.67;99326.34;5055401;28;8916;-75
2023/03/23 08:10:16;;;;;;;;;42.25;35.50;;;;;17.90;31.84;99318.09;5037797;28;9079;-78
2023/03/23 08:13:01;;;;;;;;;42.75;36.00;;;;;17.86;31.90;99319.22;5035481;28;9686;-77
2023/03/23 08:16:06;;;;;;;;;46.75;39.50;;;;;17.94;31.97;99324.94;5045254;28;8858;-78
2023/03/23 08:19:04;;;;;;;;;52.75;42.75;;;;;17.88;31.77;99322.63;4996526;28;8844;-75
2023/03/23 08:21:47;;;;;;;;;44.50;38.75;;;;;17.90;31.96;99325.22;5004029;28;8842;-78
2023/03/23 08:24:27;;;;;;;;;46.25;37.00;;;;;18.01;31.68;99324.63;4997897;28;9071;-77
2023/03/23 08:27:06;;;;;;;;;45.75;39.25;;;;;17.93;31.60;99328.56;5027088;28;8853;-75
2023/03/23 08:29:34;;;;;;;;;46.25;39.50;;;;;17.97;31.54;99332.78;5011213;28;8894;-76
2023/03/23 08:32:04;;;;;;;;;42.25;36.25;;;;;18.00;31.46;99337.06;5028628;28;8881;-78
2023/03/23 08:34:50;;;;;;;;;42.75;36.75;;;;;17.97;30.94;99337.25;5014570;28;9600;-77
2023/03/23 08:37:45;;;;;;;;;37.75;33.00;;;;;17.90;30.70;99336.72;4992294;28;8850;-75
2023/03/23 08:40:48;;;;;;;;;42.00;36.00;;;;;17.71;31.09;99346.63;4920184;29;8913;-75
2023/03/23 08:43:36;;;;;;;;;48.75;40.50;;;;;17.74;31.38;99344.66;4907996;29;9987;-76
2023/03/23 08:46:20;;;;;;;;;48.50;40.50;;;;;17.81;31.51;99345.19;4911200;29;8889;-75
2023/03/23 08:48:53;;;;;;;;;48.00;38.75;;;;;17.89;31.70;99344.75;4903725;29;8941;-75
2023/03/23 08:51:41;;;;;;;;;48.75;40.50;;;;;18.00;30.99;99336.19;4909014;29;9882;-77
2023/03/23 08:54:48;;;;;;;;;45.75;39.50;;;;;18.07;30.98;99341.13;4882438;29;8890;-76
2023/03/23 08:57:34;;;;;;;;;48.75;39.75;;;;;18.13;31.56;99343.44;4888847;29;8878;-77
2023/03/23 09:00:26;;;;;;;;;40.50;35.25;;;;;18.13;31.24;99343.44;4887712;29;8957;-77
2023/03/23 09:03:04;;;;;;;;;45.25;38.50;;;;;18.06;31.05;99341.22;4861587;29;9000;-80
2023/03/23 09:05:46;;;;;;;;;42.75;36.50;;;;;17.99;30.93;99340.66;4888849;29;8858;-78
2023/03/23 09:08:17;;;;;;;;;45.25;38.00;;;;;17.90;31.32;99335.84;4875144;29;9776;-76
2023/03/23 09:10:45;;;;;;;;;44.75;36.50;;;;;17.92;31.68;99348.13;4891635;29;8905;-78
2023/03/23 09:13:13;;;;;;;;;46.00;39.00;;;;;17.90;31.31;99339.38;4901212;29;8960;-77
2023/03/23 09:15:41;;;;;;;;;44.25;37.75;;;;;17.87;31.08;99344.88;4981572;28;9467;-76
2023/03/23 09:18:09;;;;;;;;;46.50;38.25;;;;;17.89;30.99;99345.66;4989646;28;8878;-76
2023/03/23 09:20:37;;;;;;;;;40.75;35.25;;;;;17.92;30.96;99349.94;5005644;28;8900;-76
2023/03/23 09:23:07;;;;;;;;;45.75;38.25;;;;;17.97;30.62;99350.53;5002821;28;8915;-77
2023/03/23 09:25:35;;;;;;;;;44.50;37.25;;;;;17.91;30.68;99350.84;5031601;28;8891;-78
2023/03/23 09:28:04;;;;;;;;;43.50;37.75;;;;;18.01;30.49;99346.75;5100600;28;8870;-78
2023/03/23 09:30:35;;;;;;;;;34.00;31.00;;;;;18.05;28.79;99350.16;5083280;28;8918;-78
2023/03/23 09:33:05;;;;;;;;;37.00;32.75;;;;;18.21;29.11;99342.16;5071254;28;8954;-77
2023/03/23 09:35:35;;;;;;;;;32.75;29.25;;;;;18.11;28.80;99336.50;5087418;28;8846;-78
2023/03/23 09:38:24;;;;;;;;;33.00;31.00;;;;;18.00;28.95;99333.53;5025196;28;8844;-77
2023/03/23 09:41:02;;;;;;;;;38.25;33.00;;;;;18.03;28.89;99338.72;4983289;28;9582;-78
2023/03/23 09:43:46;;;;;;;;;35.25;31.50;;;;;18.15;29.29;99338.88;5029725;28;8977;-78
2023/03/23 09:46:30;;;;;;;;;37.75;33.25;;;;;18.12;29.55;99333.75;5015253;28;8849;-74
2023/03/23 09:49:01;;;;;;;;;34.75;32.75;;;;;18.09;29.64;99325.09;4992534;28;8953;-71
2023/03/23 09:51:38;;;;;;;;;37.50;32.00;;;;;18.04;29.06;99316.50;4959919;28;8867;-72
2023/03/23 09:54:14;;;;;;;;;30.50;28.00;;;;;18.11;29.32;99315.22;4976139;28;8890;-73
2023/03/23 09:56:42;;;;;;;;;24.75;23.75;;;;;18.12;29.95;99317.81;5001554;28;8885;-73
2023/03/23 09:59:17;;;;;;;;;37.25;33.75;;;;;18.04;30.61;99321.81;4979810;28;8902;-78
2023/03/23 10:01:48;;;;;;;;;38.25;34.50;;;;;17.90;30.36;99312.78;4990293;28;8880;-80
2023/03/23 10:04:36;;;;;;;;;38.50;32.25;;;;;18.12;29.65;99316.94;4979718;28;8913;-77
2023/03/23 10:07:12;;;;;;;;;32.00;30.00;;;;;17.93;29.38;99309.97;4973556;28;9656;-76
2023/03/23 10:09:41;;;;;;;;;37.00;32.75;;;;;17.90;29.30;99306.59;4997474;28;8873;-77
2023/03/23 10:12:22;;;;;;;;;31.00;29.25;;;;;18.03;29.14;99307.66;4976342;28;9613;-77
2023/03/23 10:15:02;;;;;;;;;31.00;30.00;;;;;18.25;28.80;99306.44;4992542;28;9722;-75
2023/03/23 10:17:36;;;;;;;;;29.25;29.00;;;;;18.34;28.60;99309.44;4978485;28;8864;-71
2023/03/23 10:20:20;;;;;;;;;30.75;28.50;;;;;18.56;27.92;99305.56;5005032;28;8896;-71
2023/03/23 10:22:54;;;;;;;;;9.25;8.50;;;;;18.52;27.76;99315.53;4976820;28;8852;-72
2023/03/23 10:25:28;;;;;;;;;25.00;23.00;;;;;18.73;27.31;99312.56;4977812;28;8868;-71
2023/03/23 10:28:03;;;;;;;;;26.00;25.75;;;;;18.73;27.18;99312.56;4975142;28;8862;-73
2023/03/23 10:30:35;;;;;;;;;24.25;24.25;;;;;18.86;27.25;99315.41;4991512;28;8850;-73
2023/03/23 10:33:06;;;;;;;;;25.50;24.50;;;;;18.67;27.71;99297.81;4975026;28;8847;-73
2023/03/23 10:35:52;;;;;;;;;31.25;28.00;;;;;18.87;27.80;99301.13;4987747;28;8866;-72
2023/03/23 10:38:26;;;;;;;;;28.50;28.50;;;;;18.82;27.46;99297.88;4972285;28;8897;-73
2023/03/23 10:40:59;;;;;;;;;25.50;24.50;;;;;18.83;28.12;99294.28;4971887;28;8897;-73
2023/03/23 10:43:28;;;;;;;;;31.00;30.25;;;;;18.72;27.68;99289.53;4947688;28;8866;-72
2023/03/23 10:46:01;;;;;;;;;26.25;26.25;;;;;18.91;27.45;99292.88;5020615;28;8886;-72
2023/03/23 10:48:32;;;;;;;;;28.25;26.75;;;;;18.92;26.96;99296.38;5020096;28;8873;-73
2023/03/23 10:51:03;;;;;;;;;27.25;27.25;;;;;18.84;26.91;99298.66;4975475;28;8869;-78
2023/03/23 10:53:34;;;;;;;;;28.50;26.00;;;;;19.04;27.11;99290.31;4973548;28;8849;-76
2023/03/23 10:56:04;;;;;;;;;31.00;28.75;;;;;19.20;27.39;99290.25;4948749;28;8986;-77
2023/03/23 10:58:35;;;;;;;;;26.75;26.75;;;;;19.24;26.33;99278.44;4933085;28;8865;-77
2023/03/23 11:01:06;;;;;;;;;27.50;24.25;;;;;19.44;26.08;99273.69;4933229;28;8936;-75
2023/03/23 11:03:42;;;;;;;;;23.00;23.00;;;;;19.65;26.03;99268.84;4902415;28;9003;-77
2023/03/23 11:06:11;;;;;;;;;24.00;22.75;;;;;19.70;25.94;99267.59;4938776;28;8852;-77
2023/03/23 11:08:50;;;;;;;;;25.75;24.50;;;;;19.86;25.41;99275.50;4985068;28;8844;-78
2023/03/23 11:11:22;;;;;;;;;23.00;22.25;;;;;19.65;24.99;99258.19;4996175;28;8830;-80
2023/03/23 11:13:59;;;;;;;;;23.50;20.25;;;;;19.73;25.39;99276.41;4988517;28;8851;-76
2023/03/23 11:16:29;;;;;;;;;26.75;25.00;;;;;19.77;25.30;99267.25;4956363;28;9784;-77
2023/03/23 11:18:59;;;;;;;;;27.75;25.75;;;;;20.05;24.79;99263.66;4955905;28;8871;-76
2023/03/23 11:21:28;;;;;;;;;24.75;22.50;;;;;20.19;24.04;99263.59;4957785;28;9067;-76
2023/03/23 11:23:59;;;;;;;;;22.00;21.75;;;;;20.27;23.63;99266.66;4972078;28;8875;-77
2023/03/23 11:26:31;;;;;;;;;19.50;19.50;;;;;20.53;23.26;99272.06;4944096;28;8908;-75
2023/03/23 11:29:05;;;;;;;;;20.40;19.40;;;;;20.55;22.77;99262.13;4994601;28;8884;-75
2023/03/23 11:31:37;;;;;;;;;26.25;24.75;;;;;20.63;22.50;99254.50;4960859;28;8872;-76
2023/03/23 11:34:12;;;;;;;;;19.50;19.50;;;;;20.68;22.89;99256.84;4940227;28;8926;-77
2023/03/23 11:36:43;;;;;;;;;23.00;20.50;;;;;20.93;23.03;99255.19;4988125;28;9089;-76
2023/03/23 11:39:23;;;;;;;;;23.50;22.75;;;;;21.30;23.04;99242.78;4988348;28;8869;-75
2023/03/23 11:41:53;;;;;;;;;20.75;20.75;;;;;21.40;23.17;99246.50;4971796;28;8966;-77
2023/03/23 11:44:23;;;;;;;;;22.50;21.50;;;;;21.49;23.05;99237.00;4997985;28;8816;-79
2023/03/23 11:47:01;;;;;;;;;18.50;17.50;;;;;21.61;22.80;99238.81;5004641;28;8875;-77
2023/03/23 11:49:42;;;;;;;;;19.00;19.00;;;;;21.58;22.72;99232.81;4972074;28;8876;-78
2023/03/23 11:52:16;;;;;;;;;19.00;18.20;;;;;21.67;21.59;99232.16;4988256;28;8860;-77
2023/03/23 11:54:50;;;;;;;;;19.80;15.00;;;;;21.85;21.31;99235.34;4987609;28;9635;-76
2023/03/23 11:57:20;;;;;;;;;19.80;18.60;;;;;22.04;21.63;99226.81;4945457;29;8949;-76